sensor_id;sensor_type;location;lat;lon;timestamp;temperature;humidity
18189;DHT22;9219;50.396;8.546;2023-07-29T00:05:47;20.30;99.90
18189;DHT22;9219;50.396;8.546;2023-07-29T00:08:14;20.20;99.90
18189;DHT22;9219;50.396;8.546;2023-07-29T00:10:42;20.40;99.90
18189;DHT22;9219;50.396;8.546;2023-07-29T00:13:09;20.30;99.90
18189;DHT22;9219;50.396;8.546;2023-07-29T00:15:37;20.40;99.90
18189;DHT22;9219;50.396;8.546;2023-07-29T00:18:04;20.20;99.90
18189;DHT22;9219;50.396;8.546;2023-07-29T00:20:32;20.20;99.90
18189;DHT22;9219;50.396;8.546;2023-07-29T00:25:38;20.20;99.90
18189;DHT22;9219;50.396;8.546;2023-07-29T00:28:05;20.10;99.90
18189;DHT22;9219;50.396;8.546;2023-07-29T00:30:33;20.20;99.90
18189;DHT22;9219;50.396;8.546;2023-07-29T00:33:00;20.00;99.90
18189;DHT22;9219;50.396;8.546;2023-07-29T00:35:27;20.10;99.90
18189;DHT22;9219;50.396;8.546;2023-07-29T00:37:55;20.10;99.90
18189;DHT22;9219;50.396;8.546;2023-07-29T00:40:22;20.10;99.90
18189;DHT22;9219;50.396;8.546;2023-07-29T00:42:51;20.10;99.90
18189;DHT22;9219;50.396;8.546;2023-07-29T00:50:23;20.10;99.90
18189;DHT22;9219;50.396;8.546;2023-07-29T00:52:51;20.10;99.90
18189;DHT22;9219;50.396;8.546;2023-07-29T00:55:18;20.30;99.90
18189;DHT22;9219;50.396;8.546;2023-07-29T00:57:46;20.30;99.90
18189;DHT22;9219;50.396;8.546;2023-07-29T01:00:14;20.60;99.90
18189;DHT22;9219;50.396;8.546;2023-07-29T01:02:42;20.40;99.90
18189;DHT22;9219;50.396;8.546;2023-07-29T01:05:12;20.30;99.90
18189;DHT22;9219;50.396;8.546;2023-07-29T01:10:30;20.50;99.90
18189;DHT22;9219;50.396;8.546;2023-07-29T01:13:04;20.50;99.90
18189;DHT22;9219;50.396;8.546;2023-07-29T01:15:39;20.50;99.90
18189;DHT22;9219;50.396;8.546;2023-07-29T01:18:18;20.60;99.90
18189;DHT22;9219;50.396;8.546;2023-07-29T01:20:48;20.60;99.90
18189;DHT22;9219;50.396;8.546;2023-07-29T01:23:23;20.70;99.90
18189;DHT22;9219;50.396;8.546;2023-07-29T01:25:50;20.60;99.90
18189;DHT22;9219;50.396;8.546;2023-07-29T01:34:45;20.60;99.90
18189;DHT22;9219;50.396;8.546;2023-07-29T01:37:19;20.60;99.90
18189;DHT22;9219;50.396;8.546;2023-07-29T01:39:49;20.50;99.90
18189;DHT22;9219;50.396;8.546;2023-07-29T01:42:17;20.50;99.90
18189;DHT22;9219;50.396;8.546;2023-07-29T01:44:45;20.40;99.90
18189;DHT22;9219;50.396;8.546;2023-07-29T01:47:13;20.40;99.90
18189;DHT22;9219;50.396;8.546;2023-07-29T01:49:42;20.40;99.90
18189;DHT22;9219;50.396;8.546;2023-07-29T01:58:32;20.70;99.90
18189;DHT22;9219;50.396;8.546;2023-07-29T02:01:00;20.60;99.90
18189;DHT22;9219;50.396;8.546;2023-07-29T02:03:27;20.50;99.90
18189;DHT22;9219;50.396;8.546;2023-07-29T02:05:55;20.50;99.90
18189;DHT22;9219;50.396;8.546;2023-07-29T02:08:22;20.50;99.90
18189;DHT22;9219;50.396;8.546;2023-07-29T02:10:50;20.50;99.90
18189;DHT22;9219;50.396;8.546;2023-07-29T02:13:17;20.40;99.90
18189;DHT22;9219;50.396;8.546;2023-07-29T02:19:30;20.20;99.90
18189;DHT22;9219;50.396;8.546;2023-07-29T02:21:58;20.30;99.90
18189;DHT22;9219;50.396;8.546;2023-07-29T02:24:25;20.30;99.90
18189;DHT22;9219;50.396;8.546;2023-07-29T02:26:53;20.40;99.90
18189;DHT22;9219;50.396;8.546;2023-07-29T02:29:21;20.50;99.90
18189;DHT22;9219;50.396;8.546;2023-07-29T02:31:48;20.70;99.90
18189;DHT22;9219;50.396;8.546;2023-07-29T02:34:16;20.60;99.90
18189;DHT22;9219;50.396;8.546;2023-07-29T02:36:44;20.50;99.90
18189;DHT22;9219;50.396;8.546;2023-07-29T02:44:26;20.40;99.90
18189;DHT22;9219;50.396;8.546;2023-07-29T02:46:54;20.40;99.90
18189;DHT22;9219;50.396;8.546;2023-07-29T02:49:24;20.50;99.90
18189;DHT22;9219;50.396;8.546;2023-07-29T02:51:52;20.60;99.90
18189;DHT22;9219;50.396;8.546;2023-07-29T02:54:20;20.60;99.90
18189;DHT22;9219;50.396;8.546;2023-07-29T02:56:47;20.60;99.90
18189;DHT22;9219;50.396;8.546;2023-07-29T02:59:14;20.60;99.90
18189;DHT22;9219;50.396;8.546;2023-07-29T03:01:43;20.60;99.90
18189;DHT22;9219;50.396;8.546;2023-07-29T03:09:29;20.50;99.90
18189;DHT22;9219;50.396;8.546;2023-07-29T03:11:57;20.40;99.90
18189;DHT22;9219;50.396;8.546;2023-07-29T03:14:25;20.40;99.90
18189;DHT22;9219;50.396;8.546;2023-07-29T03:16:52;20.40;99.90
18189;DHT22;9219;50.396;8.546;2023-07-29T03:19:20;20.20;99.90
18189;DHT22;9219;50.396;8.546;2023-07-29T03:21:47;20.30;99.90
18189;DHT22;9219;50.396;8.546;2023-07-29T03:24:14;20.40;99.90
18189;DHT22;9219;50.396;8.546;2023-07-29T03:26:43;20.50;99.90
18189;DHT22;9219;50.396;8.546;2023-07-29T03:34:17;20.40;99.90
18189;DHT22;9219;50.396;8.546;2023-07-29T03:36:45;20.30;99.90
18189;DHT22;9219;50.396;8.546;2023-07-29T03:39:14;20.40;99.90
18189;DHT22;9219;50.396;8.546;2023-07-29T03:41:41;20.20;99.90
18189;DHT22;9219;50.396;8.546;2023-07-29T03:44:08;20.30;99.90
18189;DHT22;9219;50.396;8.546;2023-07-29T03:46:36;20.30;99.90
18189;DHT22;9219;50.396;8.546;2023-07-29T03:49:04;20.30;99.90
18189;DHT22;9219;50.396;8.546;2023-07-29T03:59:40;20.60;99.90
18189;DHT22;9219;50.396;8.546;2023-07-29T04:02:08;20.30;99.90
18189;DHT22;9219;50.396;8.546;2023-07-29T04:05:10;20.30;99.90
18189;DHT22;9219;50.396;8.546;2023-07-29T04:07:37;20.40;99.90
18189;DHT22;9219;50.396;8.546;2023-07-29T04:10:07;20.40;99.90
18189;DHT22;9219;50.396;8.546;2023-07-29T04:12:34;20.30;99.90
18189;DHT22;9219;50.396;8.546;2023-07-29T04:15:03;20.30;99.90
18189;DHT22;9219;50.396;8.546;2023-07-29T04:21:38;20.10;99.90
18189;DHT22;9219;50.396;8.546;2023-07-29T04:24:05;20.20;99.90
18189;DHT22;9219;50.396;8.546;2023-07-29T04:26:32;20.20;99.90
18189;DHT22;9219;50.396;8.546;2023-07-29T04:29:02;20.10;99.90
18189;DHT22;9219;50.396;8.546;2023-07-29T04:31:30;20.00;99.90
18189;DHT22;9219;50.396;8.546;2023-07-29T04:33:58;20.10;99.90
18189;DHT22;9219;50.396;8.546;2023-07-29T04:36:25;19.90;99.90
18189;DHT22;9219;50.396;8.546;2023-07-29T04:45:35;20.10;99.90
18189;DHT22;9219;50.396;8.546;2023-07-29T04:48:03;20.00;99.90
18189;DHT22;9219;50.396;8.546;2023-07-29T04:50:31;20.20;99.90
18189;DHT22;9219;50.396;8.546;2023-07-29T04:52:58;20.30;99.90
18189;DHT22;9219;50.396;8.546;2023-07-29T04:55:26;20.40;99.90
18189;DHT22;9219;50.396;8.546;2023-07-29T04:57:53;20.30;99.90
18189;DHT22;9219;50.396;8.546;2023-07-29T05:00:21;20.40;99.90
18189;DHT22;9219;50.396;8.546;2023-07-29T05:02:50;20.50;99.90
18189;DHT22;9219;50.396;8.546;2023-07-29T05:10:24;20.40;99.90
18189;DHT22;9219;50.396;8.546;2023-07-29T05:12:51;20.50;99.90
18189;DHT22;9219;50.396;8.546;2023-07-29T05:15:18;20.40;99.90
18189;DHT22;9219;50.396;8.546;2023-07-29T05:17:46;20.50;99.90
18189;DHT22;9219;50.396;8.546;2023-07-29T05:20:14;20.50;99.90
18189;DHT22;9219;50.396;8.546;2023-07-29T05:22:41;20.60;99.90
18189;DHT22;9219;50.396;8.546;2023-07-29T05:25:09;20.50;99.90
18189;DHT22;9219;50.396;8.546;2023-07-29T05:27:37;20.50;99.90
18189;DHT22;9219;50.396;8.546;2023-07-29T05:35:23;20.20;99.90
18189;DHT22;9219;50.396;8.546;2023-07-29T05:37:50;20.30;99.90
18189;DHT22;9219;50.396;8.546;2023-07-29T05:40:18;20.40;99.90
18189;DHT22;9219;50.396;8.546;2023-07-29T05:42:47;20.50;99.90
18189;DHT22;9219;50.396;8.546;2023-07-29T05:45:14;20.60;99.90
18189;DHT22;9219;50.396;8.546;2023-07-29T05:47:42;20.60;99.90
18189;DHT22;9219;50.396;8.546;2023-07-29T05:50:09;20.70;99.90
18189;DHT22;9219;50.396;8.546;2023-07-29T05:55:19;20.60;99.90
18189;DHT22;9219;50.396;8.546;2023-07-29T05:57:46;20.50;99.90
18189;DHT22;9219;50.396;8.546;2023-07-29T06:00:14;20.60;99.90
18189;DHT22;9219;50.396;8.546;2023-07-29T06:02:41;20.60;99.90
18189;DHT22;9219;50.396;8.546;2023-07-29T06:05:09;20.50;99.90
18189;DHT22;9219;50.396;8.546;2023-07-29T06:07:36;20.60;99.90
18189;DHT22;9219;50.396;8.546;2023-07-29T06:10:05;20.90;99.90
18189;DHT22;9219;50.396;8.546;2023-07-29T06:16:01;20.90;99.90
18189;DHT22;9219;50.396;8.546;2023-07-29T06:18:29;20.60;99.90
18189;DHT22;9219;50.396;8.546;2023-07-29T06:20:57;20.80;99.90
18189;DHT22;9219;50.396;8.546;2023-07-29T06:23:24;20.80;99.90
18189;DHT22;9219;50.396;8.546;2023-07-29T06:25:52;20.80;99.90
18189;DHT22;9219;50.396;8.546;2023-07-29T06:28:19;20.80;99.90
18189;DHT22;9219;50.396;8.546;2023-07-29T06:30:47;20.90;99.90
18189;DHT22;9219;50.396;8.546;2023-07-29T06:33:18;20.80;99.90
18189;DHT22;9219;50.396;8.546;2023-07-29T06:41:04;20.80;99.90
18189;DHT22;9219;50.396;8.546;2023-07-29T06:43:32;20.80;99.90
18189;DHT22;9219;50.396;8.546;2023-07-29T06:46:00;20.80;99.90
18189;DHT22;9219;50.396;8.546;2023-07-29T06:48:27;20.70;99.90
18189;DHT22;9219;50.396;8.546;2023-07-29T06:50:55;20.60;99.90
18189;DHT22;9219;50.396;8.546;2023-07-29T06:53:27;20.40;99.90
18189;DHT22;9219;50.396;8.546;2023-07-29T06:55:54;20.50;99.90
18189;DHT22;9219;50.396;8.546;2023-07-29T07:04:45;20.60;99.90
18189;DHT22;9219;50.396;8.546;2023-07-29T07:07:13;20.40;99.90
18189;DHT22;9219;50.396;8.546;2023-07-29T07:09:40;20.40;99.90
18189;DHT22;9219;50.396;8.546;2023-07-29T07:12:08;20.50;99.90
18189;DHT22;9219;50.396;8.546;2023-07-29T07:14:40;20.60;99.90
18189;DHT22;9219;50.396;8.546;2023-07-29T07:17:08;20.50;99.90
18189;DHT22;9219;50.396;8.546;2023-07-29T07:19:39;20.70;99.90
18189;DHT22;9219;50.396;8.546;2023-07-29T07:26:12;20.70;99.90
18189;DHT22;9219;50.396;8.546;2023-07-29T07:28:40;20.40;99.90
18189;DHT22;9219;50.396;8.546;2023-07-29T07:31:07;20.40;99.90
18189;DHT22;9219;50.396;8.546;2023-07-29T07:33:35;20.50;99.90
18189;DHT22;9219;50.396;8.546;2023-07-29T07:36:02;20.50;99.90
18189;DHT22;9219;50.396;8.546;2023-07-29T07:38:30;20.60;99.90
18189;DHT22;9219;50.396;8.546;2023-07-29T07:40:57;20.70;99.90
18189;DHT22;9219;50.396;8.546;2023-07-29T07:43:26;20.70;99.90
18189;DHT22;9219;50.396;8.546;2023-07-29T07:50:58;20.90;99.90
18189;DHT22;9219;50.396;8.546;2023-07-29T07:53:26;21.00;99.90
18189;DHT22;9219;50.396;8.546;2023-07-29T07:55:53;20.90;99.90
18189;DHT22;9219;50.396;8.546;2023-07-29T07:58:21;21.20;99.90
18189;DHT22;9219;50.396;8.546;2023-07-29T08:00:48;20.80;99.90
18189;DHT22;9219;50.396;8.546;2023-07-29T08:03:15;20.90;99.90
18189;DHT22;9219;50.396;8.546;2023-07-29T08:05:43;20.80;99.90
18189;DHT22;9219;50.396;8.546;2023-07-29T08:08:11;20.90;99.90
18189;DHT22;9219;50.396;8.546;2023-07-29T08:15:58;20.90;99.90
18189;DHT22;9219;50.396;8.546;2023-07-29T08:18:25;21.30;99.90
18189;DHT22;9219;50.396;8.546;2023-07-29T08:20:52;21.60;99.90
18189;DHT22;9219;50.396;8.546;2023-07-29T08:23:20;21.60;99.90
18189;DHT22;9219;50.396;8.546;2023-07-29T08:25:52;21.70;99.90
18189;DHT22;9219;50.396;8.546;2023-07-29T08:28:20;21.90;99.90
18189;DHT22;9219;50.396;8.546;2023-07-29T08:30:48;21.90;99.90
18189;DHT22;9219;50.396;8.546;2023-07-29T08:37:14;21.90;99.90
18189;DHT22;9219;50.396;8.546;2023-07-29T08:39:41;22.30;99.90
18189;DHT22;9219;50.396;8.546;2023-07-29T08:42:11;22.20;99.90
18189;DHT22;9219;50.396;8.546;2023-07-29T08:44:41;22.60;99.90
18189;DHT22;9219;50.396;8.546;2023-07-29T08:47:09;22.90;99.90
18189;DHT22;9219;50.396;8.546;2023-07-29T08:49:47;23.00;99.90
18189;DHT22;9219;50.396;8.546;2023-07-29T08:52:36;22.80;99.90
18189;DHT22;9219;50.396;8.546;2023-07-29T09:00:10;23.00;99.90
18189;DHT22;9219;50.396;8.546;2023-07-29T09:02:38;23.10;99.90
18189;DHT22;9219;50.396;8.546;2023-07-29T09:05:07;23.00;99.90
18189;DHT22;9219;50.396;8.546;2023-07-29T09:07:36;23.10;99.90
18189;DHT22;9219;50.396;8.546;2023-07-29T09:10:07;23.10;99.90
18189;DHT22;9219;50.396;8.546;2023-07-29T09:12:35;23.20;99.90
18189;DHT22;9219;50.396;8.546;2023-07-29T09:15:03;23.60;99.90
18189;DHT22;9219;50.396;8.546;2023-07-29T09:20:12;23.70;99.90
18189;DHT22;9219;50.396;8.546;2023-07-29T09:22:40;23.50;99.90
18189;DHT22;9219;50.396;8.546;2023-07-29T09:25:08;23.70;99.90
18189;DHT22;9219;50.396;8.546;2023-07-29T09:27:35;24.00;99.90
18189;DHT22;9219;50.396;8.546;2023-07-29T09:30:07;23.90;99.90
18189;DHT22;9219;50.396;8.546;2023-07-29T09:32:42;24.10;99.90
18189;DHT22;9219;50.396;8.546;2023-07-29T09:35:11;24.10;99.90
18189;DHT22;9219;50.396;8.546;2023-07-29T09:37:40;24.40;99.90
18189;DHT22;9219;50.396;8.546;2023-07-29T09:45:19;24.50;99.90
18189;DHT22;9219;50.396;8.546;2023-07-29T09:47:47;24.80;99.90
18189;DHT22;9219;50.396;8.546;2023-07-29T09:50:15;24.90;99.90
18189;DHT22;9219;50.396;8.546;2023-07-29T09:52:44;25.00;99.90
18189;DHT22;9219;50.396;8.546;2023-07-29T09:55:12;24.80;99.90
18189;DHT22;9219;50.396;8.546;2023-07-29T09:57:40;24.90;99.90
18189;DHT22;9219;50.396;8.546;2023-07-29T10:00:13;25.30;99.90
18189;DHT22;9219;50.396;8.546;2023-07-29T10:02:43;25.40;99.90
18189;DHT22;9219;50.396;8.546;2023-07-29T10:21:05;25.30;99.90
18189;DHT22;9219;50.396;8.546;2023-07-29T10:23:38;25.80;99.90
18189;DHT22;9219;50.396;8.546;2023-07-29T10:26:10;26.30;99.90
18189;DHT22;9219;50.396;8.546;2023-07-29T10:28:41;26.20;99.90
18189;DHT22;9219;50.396;8.546;2023-07-29T10:31:13;26.20;99.90
18189;DHT22;9219;50.396;8.546;2023-07-29T10:33:43;26.20;99.90
18189;DHT22;9219;50.396;8.546;2023-07-29T10:36:12;26.20;99.90
18189;DHT22;9219;50.396;8.546;2023-07-29T10:43:46;26.10;99.90
18189;DHT22;9219;50.396;8.546;2023-07-29T10:46:18;26.50;99.90
18189;DHT22;9219;50.396;8.546;2023-07-29T10:48:54;26.40;99.90
18189;DHT22;9219;50.396;8.546;2023-07-29T10:51:23;26.20;99.90
18189;DHT22;9219;50.396;8.546;2023-07-29T10:53:53;26.20;99.90
18189;DHT22;9219;50.396;8.546;2023-07-29T10:56:27;26.40;99.90
18189;DHT22;9219;50.396;8.546;2023-07-29T10:58:58;26.70;99.90
18189;DHT22;9219;50.396;8.546;2023-07-29T11:07:49;26.00;99.90
18189;DHT22;9219;50.396;8.546;2023-07-29T11:10:27;25.20;99.90
18189;DHT22;9219;50.396;8.546;2023-07-29T11:13:17;24.70;99.90
18189;DHT22;9219;50.396;8.546;2023-07-29T11:16:09;24.00;99.90
18189;DHT22;9219;50.396;8.546;2023-07-29T11:18:48;24.00;99.90
18189;DHT22;9219;50.396;8.546;2023-07-29T11:21:26;24.10;99.90
18189;DHT22;9219;50.396;8.546;2023-07-29T11:24:01;24.10;99.90
18189;DHT22;9219;50.396;8.546;2023-07-29T11:26:37;23.80;99.90
18189;DHT22;9219;50.396;8.546;2023-07-29T11:29:27;23.90;99.90
18189;DHT22;9219;50.396;8.546;2023-07-29T11:35:40;24.30;99.90
18189;DHT22;9219;50.396;8.546;2023-07-29T11:38:07;23.80;99.90
18189;DHT22;9219;50.396;8.546;2023-07-29T11:40:35;23.90;99.90
18189;DHT22;9219;50.396;8.546;2023-07-29T11:43:03;23.90;99.90
18189;DHT22;9219;50.396;8.546;2023-07-29T11:45:33;23.70;99.90
18189;DHT22;9219;50.396;8.546;2023-07-29T11:48:18;23.70;99.90
18189;DHT22;9219;50.396;8.546;2023-07-29T11:50:46;23.60;99.90
18189;DHT22;9219;50.396;8.546;2023-07-29T11:56:45;23.20;99.90
18189;DHT22;9219;50.396;8.546;2023-07-29T11:59:12;23.10;99.90
18189;DHT22;9219;50.396;8.546;2023-07-29T12:01:40;23.40;99.90
18189;DHT22;9219;50.396;8.546;2023-07-29T12:04:07;23.90;99.90
18189;DHT22;9219;50.396;8.546;2023-07-29T12:06:35;23.90;99.90
18189;DHT22;9219;50.396;8.546;2023-07-29T12:09:05;23.90;99.90
18189;DHT22;9219;50.396;8.546;2023-07-29T12:11:34;23.90;99.90
18189;DHT22;9219;50.396;8.546;2023-07-29T12:16:43;23.80;99.90
18189;DHT22;9219;50.396;8.546;2023-07-29T12:19:12;24.10;99.90
18189;DHT22;9219;50.396;8.546;2023-07-29T12:21:41;24.30;99.90
18189;DHT22;9219;50.396;8.546;2023-07-29T12:24:09;24.30;99.90
18189;DHT22;9219;50.396;8.546;2023-07-29T12:26:37;23.40;99.90
18189;DHT22;9219;50.396;8.546;2023-07-29T12:29:12;23.40;99.90
18189;DHT22;9219;50.396;8.546;2023-07-29T12:31:40;23.80;99.90
18189;DHT22;9219;50.396;8.546;2023-07-29T12:39:24;24.20;99.90
18189;DHT22;9219;50.396;8.546;2023-07-29T12:41:53;25.30;99.90
18189;DHT22;9219;50.396;8.546;2023-07-29T12:44:24;25.50;99.90
18189;DHT22;9219;50.396;8.546;2023-07-29T12:46:51;24.90;99.90
18189;DHT22;9219;50.396;8.546;2023-07-29T12:49:19;24.80;99.90
18189;DHT22;9219;50.396;8.546;2023-07-29T12:51:49;24.60;99.90
18189;DHT22;9219;50.396;8.546;2023-07-29T12:54:17;24.30;99.90
18189;DHT22;9219;50.396;8.546;2023-07-29T13:01:44;23.80;99.90
18189;DHT22;9219;50.396;8.546;2023-07-29T13:04:12;23.90;99.90
18189;DHT22;9219;50.396;8.546;2023-07-29T13:06:40;24.10;99.90
18189;DHT22;9219;50.396;8.546;2023-07-29T13:09:09;24.20;99.90
18189;DHT22;9219;50.396;8.546;2023-07-29T13:11:36;24.30;99.90
18189;DHT22;9219;50.396;8.546;2023-07-29T13:14:04;24.10;99.90
18189;DHT22;9219;50.396;8.546;2023-07-29T13:16:31;24.30;99.90
18189;DHT22;9219;50.396;8.546;2023-07-29T13:24:05;24.60;99.90
18189;DHT22;9219;50.396;8.546;2023-07-29T13:26:32;24.80;99.90
18189;DHT22;9219;50.396;8.546;2023-07-29T13:29:00;24.70;99.90
18189;DHT22;9219;50.396;8.546;2023-07-29T13:31:33;24.90;99.90
18189;DHT22;9219;50.396;8.546;2023-07-29T13:34:01;24.80;99.90
18189;DHT22;9219;50.396;8.546;2023-07-29T13:36:31;24.60;99.90
18189;DHT22;9219;50.396;8.546;2023-07-29T13:38:59;24.80;99.90
18189;DHT22;9219;50.396;8.546;2023-07-29T13:46:30;24.90;99.90
18189;DHT22;9219;50.396;8.546;2023-07-29T13:48:58;24.90;99.90
18189;DHT22;9219;50.396;8.546;2023-07-29T13:51:25;24.50;99.90
18189;DHT22;9219;50.396;8.546;2023-07-29T13:53:53;24.60;99.90
18189;DHT22;9219;50.396;8.546;2023-07-29T13:56:23;24.70;99.90
18189;DHT22;9219;50.396;8.546;2023-07-29T13:58:54;24.90;99.90
18189;DHT22;9219;50.396;8.546;2023-07-29T14:05:46;25.10;99.90
18189;DHT22;9219;50.396;8.546;2023-07-29T14:08:14;25.30;99.90
18189;DHT22;9219;50.396;8.546;2023-07-29T14:10:41;25.00;99.90
18189;DHT22;9219;50.396;8.546;2023-07-29T14:13:12;25.20;99.90
18189;DHT22;9219;50.396;8.546;2023-07-29T14:15:39;25.10;99.90
18189;DHT22;9219;50.396;8.546;2023-07-29T14:18:06;24.80;99.90
18189;DHT22;9219;50.396;8.546;2023-07-29T14:20:34;25.00;99.90
18189;DHT22;9219;50.396;8.546;2023-07-29T14:28:02;25.30;99.90
18189;DHT22;9219;50.396;8.546;2023-07-29T14:30:30;25.00;99.90
18189;DHT22;9219;50.396;8.546;2023-07-29T14:32:57;24.80;99.90
18189;DHT22;9219;50.396;8.546;2023-07-29T14:35:26;24.50;99.90
18189;DHT22;9219;50.396;8.546;2023-07-29T14:37:54;24.10;99.90
18189;DHT22;9219;50.396;8.546;2023-07-29T14:40:21;23.90;99.90
18189;DHT22;9219;50.396;8.546;2023-07-29T14:42:49;23.70;99.90
18189;DHT22;9219;50.396;8.546;2023-07-29T14:50:41;24.10;99.90
18189;DHT22;9219;50.396;8.546;2023-07-29T14:53:10;24.40;99.90
18189;DHT22;9219;50.396;8.546;2023-07-29T14:55:38;24.50;99.90
18189;DHT22;9219;50.396;8.546;2023-07-29T14:58:06;24.70;99.90
18189;DHT22;9219;50.396;8.546;2023-07-29T15:00:34;24.70;99.90
18189;DHT22;9219;50.396;8.546;2023-07-29T15:03:02;24.80;99.90
18189;DHT22;9219;50.396;8.546;2023-07-29T15:05:32;24.70;99.90
18189;DHT22;9219;50.396;8.546;2023-07-29T15:11:56;24.50;99.90
18189;DHT22;9219;50.396;8.546;2023-07-29T15:14:25;24.30;99.90
18189;DHT22;9219;50.396;8.546;2023-07-29T15:16:53;24.30;99.90
18189;DHT22;9219;50.396;8.546;2023-07-29T15:19:21;24.40;99.90
18189;DHT22;9219;50.396;8.546;2023-07-29T15:21:50;24.40;99.90
18189;DHT22;9219;50.396;8.546;2023-07-29T15:24:18;24.50;99.90
18189;DHT22;9219;50.396;8.546;2023-07-29T15:26:46;24.40;99.90
18189;DHT22;9219;50.396;8.546;2023-07-29T15:31:58;24.40;99.90
18189;DHT22;9219;50.396;8.546;2023-07-29T15:34:26;24.80;99.90
18189;DHT22;9219;50.396;8.546;2023-07-29T15:36:58;24.90;99.90
18189;DHT22;9219;50.396;8.546;2023-07-29T15:39:25;25.00;99.90
18189;DHT22;9219;50.396;8.546;2023-07-29T15:41:53;25.20;99.90
18189;DHT22;9219;50.396;8.546;2023-07-29T15:44:22;25.40;99.90
18189;DHT22;9219;50.396;8.546;2023-07-29T15:46:50;25.50;99.90
18189;DHT22;9219;50.396;8.546;2023-07-29T15:54:26;25.20;99.90
18189;DHT22;9219;50.396;8.546;2023-07-29T15:56:53;25.30;99.90
18189;DHT22;9219;50.396;8.546;2023-07-29T15:59:21;25.50;99.90
18189;DHT22;9219;50.396;8.546;2023-07-29T16:01:48;25.50;99.90
18189;DHT22;9219;50.396;8.546;2023-07-29T16:04:16;25.60;99.90
18189;DHT22;9219;50.396;8.546;2023-07-29T16:06:44;25.90;99.90
18189;DHT22;9219;50.396;8.546;2023-07-29T16:09:11;26.00;99.90
18189;DHT22;9219;50.396;8.546;2023-07-29T16:16:43;26.10;99.90
18189;DHT22;9219;50.396;8.546;2023-07-29T16:19:11;25.00;99.90
18189;DHT22;9219;50.396;8.546;2023-07-29T16:21:39;25.00;99.90
18189;DHT22;9219;50.396;8.546;2023-07-29T16:24:06;25.20;99.90
18189;DHT22;9219;50.396;8.546;2023-07-29T16:26:34;25.40;99.90
18189;DHT22;9219;50.396;8.546;2023-07-29T16:29:01;25.20;99.90
18189;DHT22;9219;50.396;8.546;2023-07-29T16:31:30;25.30;99.90
18189;DHT22;9219;50.396;8.546;2023-07-29T16:38:58;25.70;99.90
18189;DHT22;9219;50.396;8.546;2023-07-29T16:41:26;25.30;99.90
18189;DHT22;9219;50.396;8.546;2023-07-29T16:44:13;25.20;99.90
18189;DHT22;9219;50.396;8.546;2023-07-29T16:46:53;25.10;99.90
18189;DHT22;9219;50.396;8.546;2023-07-29T16:49:22;25.10;99.90
18189;DHT22;9219;50.396;8.546;2023-07-29T16:51:50;25.20;99.90
18189;DHT22;9219;50.396;8.546;2023-07-29T16:54:19;25.20;99.90
18189;DHT22;9219;50.396;8.546;2023-07-29T17:01:51;24.70;99.90
18189;DHT22;9219;50.396;8.546;2023-07-29T17:04:21;24.80;99.90
18189;DHT22;9219;50.396;8.546;2023-07-29T17:06:49;24.90;99.90
18189;DHT22;9219;50.396;8.546;2023-07-29T17:09:17;24.90;99.90
18189;DHT22;9219;50.396;8.546;2023-07-29T17:11:47;24.90;99.90
18189;DHT22;9219;50.396;8.546;2023-07-29T17:14:16;24.80;99.90
18189;DHT22;9219;50.396;8.546;2023-07-29T17:16:45;24.50;99.90
18189;DHT22;9219;50.396;8.546;2023-07-29T17:34:42;24.70;99.90
18189;DHT22;9219;50.396;8.546;2023-07-29T17:37:09;24.70;99.90
18189;DHT22;9219;50.396;8.546;2023-07-29T17:39:37;24.90;99.90
18189;DHT22;9219;50.396;8.546;2023-07-29T17:42:07;25.00;99.90
18189;DHT22;9219;50.396;8.546;2023-07-29T17:44:36;24.90;99.90
18189;DHT22;9219;50.396;8.546;2023-07-29T17:47:03;24.70;99.90
18189;DHT22;9219;50.396;8.546;2023-07-29T17:49:31;24.70;99.90
18189;DHT22;9219;50.396;8.546;2023-07-29T17:56:42;24.70;99.90
18189;DHT22;9219;50.396;8.546;2023-07-29T17:59:09;24.90;99.90
18189;DHT22;9219;50.396;8.546;2023-07-29T18:01:41;25.00;99.90
18189;DHT22;9219;50.396;8.546;2023-07-29T18:04:09;25.00;99.90
18189;DHT22;9219;50.396;8.546;2023-07-29T18:06:37;25.10;99.90
18189;DHT22;9219;50.396;8.546;2023-07-29T18:09:05;25.00;99.90
18189;DHT22;9219;50.396;8.546;2023-07-29T18:11:32;25.00;99.90
18189;DHT22;9219;50.396;8.546;2023-07-29T18:16:42;24.90;99.90
18189;DHT22;9219;50.396;8.546;2023-07-29T18:19:10;24.90;99.90
18189;DHT22;9219;50.396;8.546;2023-07-29T18:21:38;24.70;99.90
18189;DHT22;9219;50.396;8.546;2023-07-29T18:24:06;24.40;99.90
18189;DHT22;9219;50.396;8.546;2023-07-29T18:26:33;24.40;99.90
18189;DHT22;9219;50.396;8.546;2023-07-29T18:29:01;24.10;99.90
18189;DHT22;9219;50.396;8.546;2023-07-29T18:31:32;24.10;99.90
18189;DHT22;9219;50.396;8.546;2023-07-29T18:36:40;24.20;99.90
18189;DHT22;9219;50.396;8.546;2023-07-29T18:39:12;24.20;99.90
18189;DHT22;9219;50.396;8.546;2023-07-29T18:41:39;24.00;99.90
18189;DHT22;9219;50.396;8.546;2023-07-29T18:44:07;23.60;99.90
18189;DHT22;9219;50.396;8.546;2023-07-29T18:46:34;23.70;99.90
18189;DHT22;9219;50.396;8.546;2023-07-29T18:49:02;23.90;99.90
18189;DHT22;9219;50.396;8.546;2023-07-29T18:51:39;24.00;99.90
18189;DHT22;9219;50.396;8.546;2023-07-29T18:58:37;23.90;99.90
18189;DHT22;9219;50.396;8.546;2023-07-29T19:01:05;23.80;99.90
18189;DHT22;9219;50.396;8.546;2023-07-29T19:03:32;23.70;99.90
18189;DHT22;9219;50.396;8.546;2023-07-29T19:06:00;23.60;99.90
18189;DHT22;9219;50.396;8.546;2023-07-29T19:08:27;23.40;99.90
18189;DHT22;9219;50.396;8.546;2023-07-29T19:10:55;23.30;99.90
18189;DHT22;9219;50.396;8.546;2023-07-29T19:13:25;23.10;99.90
18189;DHT22;9219;50.396;8.546;2023-07-29T19:20:41;23.20;99.90
18189;DHT22;9219;50.396;8.546;2023-07-29T19:23:19;23.20;99.90
18189;DHT22;9219;50.396;8.546;2023-07-29T19:25:47;22.90;99.90
18189;DHT22;9219;50.396;8.546;2023-07-29T19:28:15;22.90;99.90
18189;DHT22;9219;50.396;8.546;2023-07-29T19:30:43;22.80;99.90
18189;DHT22;9219;50.396;8.546;2023-07-29T19:33:10;22.70;99.90
18189;DHT22;9219;50.396;8.546;2023-07-29T19:35:38;22.70;99.90
18189;DHT22;9219;50.396;8.546;2023-07-29T19:43:14;22.90;99.90
18189;DHT22;9219;50.396;8.546;2023-07-29T19:45:46;22.50;99.90
18189;DHT22;9219;50.396;8.546;2023-07-29T19:48:33;22.70;99.90
18189;DHT22;9219;50.396;8.546;2023-07-29T19:51:01;22.60;99.90
18189;DHT22;9219;50.396;8.546;2023-07-29T19:53:28;22.80;99.90
18189;DHT22;9219;50.396;8.546;2023-07-29T19:55:57;22.80;99.90
18189;DHT22;9219;50.396;8.546;2023-07-29T19:58:26;22.90;99.90
18189;DHT22;9219;50.396;8.546;2023-07-29T20:06:02;23.00;99.90
18189;DHT22;9219;50.396;8.546;2023-07-29T20:08:30;22.90;99.90
18189;DHT22;9219;50.396;8.546;2023-07-29T20:10:58;23.10;99.90
18189;DHT22;9219;50.396;8.546;2023-07-29T20:13:26;23.20;99.90
18189;DHT22;9219;50.396;8.546;2023-07-29T20:15:55;23.10;99.90
18189;DHT22;9219;50.396;8.546;2023-07-29T20:18:22;23.10;99.90
18189;DHT22;9219;50.396;8.546;2023-07-29T20:20:50;23.00;99.90
18189;DHT22;9219;50.396;8.546;2023-07-29T20:28:24;22.90;99.90
18189;DHT22;9219;50.396;8.546;2023-07-29T20:30:55;23.00;99.90